Mount Aetna, Pennsylvania
Current Conditions -  °F | °C
As of 8:58 AM on Saturday 20 Dec 2014 (Local Time) from KMUI Reporting Station
Overcast Overcast  
Wind Chill: 30°   Ceiling: 2800
Heat Index: 30°   Visibility: 10mi
Dew Point: 20°   Wind: 3mph
Humidity: 65%   Direction: 320°NW
Pressure: 30.29"   Gusts: NA
Location:  40.42°N, 76.3°W
Report Text: KMUI 201358Z AUTO 32003KT 10SM OVC028 M01/M07 A3029 RMK AO2 SLP266 T10101069
Loading
Personal Weather Stations






























Interactive Weather Map New forecast layout! Learn more

10-Day Weather Forecast

Advertisements
Track Severe Weather on mobile